Time;durP1;ratioP1;P1;durP2;ratioP2;P2;SDS_P1;SDS_P2;PMS_P1;PMS_P2;Temp;Humidity;BMP_temperature;BMP_pressure;BME280_temperature;BME280_humidity;BME280_pressure;Samples;Min_cycle;Max_cycle;Signal;HPM_P1;HPM_P2
2021/05/07 00:02:18;;;;;;;7.33;5.67;;;7.30;99.90;;;8.56;100.00;99206.06;5020114;28;34678;-60
2021/05/07 00:05:30;;;;;;;5.53;4.97;;;7.40;99.90;;;8.52;100.00;99203.94;5021448;28;31660;-61
2021/05/07 00:08:43;;;;;;;6.13;5.53;;;7.30;99.90;;;8.63;100.00;99204.38;5018732;28;28509;-61
2021/05/07 00:11:55;;;;;;;8.30;5.40;;;7.30;99.90;;;8.52;100.00;99198.59;5018327;28;31854;-62
2021/05/07 00:15:06;;;;;;;6.00;5.37;;;7.30;99.90;;;8.45;100.00;99198.44;5015639;28;33162;-61
2021/05/07 00:18:17;;;;;;;5.60;4.57;;;7.30;99.90;;;8.46;100.00;99199.28;5016717;28;34384;-61
2021/05/07 00:21:41;;;;;;;4.70;4.30;;;7.20;99.90;;;8.53;100.00;99205.59;5019216;28;27153;-60
2021/05/07 00:24:54;;;;;;;6.30;5.70;;;7.20;99.90;;;8.57;100.00;99204.22;5023285;28;23724;-60
2021/05/07 00:28:11;;;;;;;7.43;5.90;;;7.20;99.90;;;8.54;100.00;99200.06;5018508;28;32252;-60
2021/05/07 00:31:22;;;;;;;7.30;6.13;;;7.20;99.90;;;8.44;100.00;99199.44;5018069;28;32310;-62
2021/05/07 00:34:33;;;;;;;6.23;5.63;;;7.20;99.90;;;8.43;100.00;99195.09;5020093;28;26440;-62
2021/05/07 00:37:46;;;;;;;6.23;5.63;;;7.10;99.90;;;8.35;100.00;99189.81;5014633;28;37294;-62
2021/05/07 00:41:06;;;;;;;7.13;6.33;;;7.10;99.90;;;8.28;100.00;99183.47;5029888;28;38480;-61
2021/05/07 00:44:18;;;;;;;7.23;6.00;;;7.10;99.90;;;8.24;100.00;99180.31;5013561;28;35053;-62
2021/05/07 00:47:42;;;;;;;6.43;5.83;;;7.10;99.90;;;8.25;100.00;99173.97;5007319;28;39790;-62
2021/05/07 00:50:55;;;;;;;6.57;5.97;;;7.00;99.90;;;8.22;100.00;99174.31;5008255;28;35679;-62
2021/05/07 00:54:07;;;;;;;7.20;6.50;;;7.00;99.90;;;8.22;100.00;99176.16;4992951;28;37894;-62
2021/05/07 00:57:33;;;;;;;6.53;5.93;;;7.00;99.90;;;8.16;100.00;99174.97;5018588;28;29088;-62
2021/05/07 01:00:46;;;;;;;6.47;5.87;;;6.90;99.90;;;8.20;100.00;99180.81;5015734;28;36586;-61
2021/05/07 01:04:13;;;;;;;7.47;5.83;;;6.90;99.90;;;8.20;100.00;99176.31;4981204;28;32980;-62
2021/05/07 01:14:45;;;;;;;6.87;6.17;;;6.90;99.90;;;8.21;100.00;99156.66;4962866;28;31134;-61
2021/05/07 01:18:32;;;;;;;6.57;5.97;;;6.90;99.90;;;8.16;100.00;99151.00;5015591;28;38096;-61
2021/05/07 01:25:15;;;;;;;6.87;6.10;;;6.90;99.90;;;7.97;100.00;99138.06;4999932;28;34321;-60
2021/05/07 01:28:29;;;;;;;6.53;5.70;;;6.90;99.90;;;7.94;100.00;99144.56;5018401;28;32680;-61
2021/05/07 01:31:46;;;;;;;7.10;5.60;;;6.90;99.90;;;8.01;100.00;99146.56;5018906;28;36334;-60
2021/05/07 01:46:05;;;;;;;5.80;5.27;;;6.80;99.90;;;7.78;100.00;99141.94;5011502;28;50158;-60
2021/05/07 01:52:40;;;;;;;6.30;5.70;;;6.70;99.90;;;7.85;100.00;99158.88;5015714;28;46619;-61
2021/05/07 01:56:20;;;;;;;5.57;5.07;;;6.70;99.90;;;7.86;100.00;99165.06;4999067;28;37365;-61
2021/05/07 01:59:52;;;;;;;5.80;5.20;;;6.70;99.90;;;7.87;100.00;99170.22;4915397;28;46205;-60
2021/05/07 02:03:10;;;;;;;5.67;5.17;;;6.70;99.90;;;7.85;100.00;99172.22;4920274;28;35362;-61
2021/05/07 02:06:33;;;;;;;6.07;5.47;;;6.70;99.90;;;7.80;100.00;99171.88;4919322;28;28561;-61
2021/05/07 02:10:01;;;;;;;7.33;5.40;;;6.80;99.90;;;7.75;100.00;99173.38;4921745;28;27122;-60
2021/05/07 02:13:35;;;;;;;6.10;5.50;;;6.80;99.90;;;7.59;100.00;99179.53;4905842;28;30807;-61
2021/05/07 02:16:46;;;;;;;7.13;5.70;;;6.80;99.90;;;7.56;100.00;99180.69;5003373;28;27709;-60
2021/05/07 02:20:34;;;;;;;6.30;5.50;;;6.80;99.90;;;7.62;100.00;99184.53;5008823;28;29261;-60
2021/05/07 02:31:02;;;;;;;6.70;6.10;;;6.70;99.90;;;7.57;100.00;99200.16;4941786;28;31126;-59
2021/05/07 02:38:26;;;;;;;7.00;6.40;;;6.60;99.90;;;7.70;100.00;99191.69;4954286;28;36110;-59
2021/05/07 02:57:11;;;;;;;6.00;5.50;;;6.60;99.90;;;7.70;100.00;99202.31;4863871;29;40458;-61
2021/05/07 03:00:42;;;;;;;8.33;7.37;;;6.60;99.90;;;7.67;100.00;99198.16;4918429;28;35038;-59
2021/05/07 03:04:24;;;;;;;7.20;6.17;;;6.60;99.90;;;7.73;100.00;99197.50;4983962;28;27780;-60
2021/05/07 03:12:13;;;;;;;7.70;6.77;;;6.60;99.90;;;7.70;100.00;99212.97;4919572;28;32480;-60
2021/05/07 03:15:43;;;;;;;6.90;6.30;;;6.60;99.90;;;7.66;100.00;99217.00;4892078;28;31738;-60
2021/05/07 03:19:19;;;;;;;8.00;7.10;;;6.70;99.90;;;7.70;100.00;99220.97;5000793;28;29839;-61
2021/05/07 03:26:26;;;;;;;7.70;6.93;;;6.70;99.90;;;7.77;100.00;99235.28;4999143;28;32230;-61
2021/05/07 03:29:49;;;;;;;7.57;6.87;;;6.70;99.90;;;7.68;100.00;99236.28;4998524;28;34570;-60
2021/05/07 03:33:33;;;;;;;7.27;6.47;;;6.70;99.90;;;7.68;100.00;99239.75;5003451;28;33295;-61
2021/05/07 03:36:50;;;;;;;10.47;9.37;;;6.70;99.90;;;7.46;100.00;99240.41;4969999;28;37017;-61
2021/05/07 03:47:51;;;;;;;9.33;7.70;;;6.60;99.90;;;7.61;100.00;99244.09;5020295;28;29105;-59
2021/05/07 03:51:24;;;;;;;7.70;7.00;;;6.60;99.90;;;7.51;100.00;99243.41;5023252;28;28990;-61
2021/05/07 04:01:40;;;;;;;9.53;7.50;;;6.50;99.90;;;7.65;100.00;99260.59;4982576;28;37223;-61
2021/05/07 04:05:24;;;;;;;10.70;7.23;;;6.50;99.90;;;7.57;100.00;99264.88;5016911;28;30677;-60
2021/05/07 04:08:57;;;;;;;7.20;6.50;;;6.50;99.90;;;7.55;100.00;99268.69;5011618;28;33333;-61
2021/05/07 04:19:33;;;;;;;9.13;7.33;;;6.50;99.90;;;7.64;100.00;99278.38;5016278;28;32782;-61
2021/05/07 04:22:44;;;;;;;9.00;7.70;;;6.50;99.90;;;7.70;100.00;99288.38;5018828;28;27528;-61
2021/05/07 04:33:09;;;;;;;8.77;7.97;;;6.60;99.90;;;7.84;100.00;99305.53;5000248;28;28077;-61
2021/05/07 04:44:34;;;;;;;7.67;6.87;;;6.70;99.90;;;7.80;100.00;99320.16;4875563;28;33640;-61
2021/05/07 04:55:27;;;;;;;8.67;7.87;;;6.70;99.90;;;7.81;100.00;99317.34;5010574;28;35476;-59
2021/05/07 04:59:02;;;;;;;8.77;7.90;;;6.70;99.90;;;7.80;100.00;99318.34;5020883;28;24190;-60
2021/05/07 05:09:32;;;;;;;8.33;7.43;;;6.70;99.90;;;7.87;100.00;99323.84;5019127;28;36777;-59
2021/05/07 05:26:40;;;;;;;8.47;7.20;;;6.70;99.90;;;7.99;100.00;99337.69;5014037;28;33127;-59
2021/05/07 05:30:12;;;;;;;8.73;7.83;;;6.70;99.90;;;7.83;100.00;99336.66;5017664;28;37956;-60
2021/05/07 05:33:47;;;;;;;9.77;7.77;;;6.70;99.90;;;7.88;100.00;99342.34;4978549;28;41925;-60
2021/05/07 05:37:24;;;;;;;10.43;8.33;;;6.70;99.90;;;7.89;100.00;99344.00;5015555;28;35157;-61
2021/05/07 05:40:48;;;;;;;8.70;7.90;;;6.70;99.90;;;7.80;100.00;99350.28;5020768;28;30514;-61
2021/05/07 05:43:59;;;;;;;9.20;8.10;;;6.70;99.90;;;7.92;100.00;99348.16;5014849;28;36437;-59
2021/05/07 05:54:37;;;;;;;9.93;8.93;;;6.70;99.90;;;8.00;100.00;99350.00;5016497;28;36681;-58
2021/05/07 05:58:10;;;;;;;9.90;8.83;;;6.80;99.90;;;8.03;100.00;99358.50;5015514;28;32361;-57
2021/05/07 06:01:27;;;;;;;10.17;8.83;;;6.80;99.90;;;8.06;100.00;99362.66;5017042;28;34625;-59
2021/05/07 06:04:38;;;;;;;9.77;8.87;;;6.90;99.90;;;8.10;100.00;99362.19;5015860;28;33768;-59
2021/05/07 06:08:15;;;;;;;10.93;9.83;;;6.90;99.90;;;8.18;100.00;99364.00;5017550;28;36992;-57
2021/05/07 06:18:37;;;;;;;12.47;10.13;;;7.10;99.90;;;8.53;100.00;99362.91;5013705;28;32174;-58
2021/05/07 06:22:25;;;;;;;12.67;11.30;;;7.20;99.90;;;8.51;100.00;99359.56;5021251;28;26135;-59
2021/05/07 06:26:10;;;;;;;11.40;10.20;;;7.20;99.90;;;8.55;100.00;99360.88;4908297;28;28520;-59
2021/05/07 06:29:21;;;;;;;15.73;11.13;;;7.30;99.90;;;8.67;100.00;99366.69;4872774;28;28705;-60
2021/05/07 06:40:16;;;;;;;12.90;11.63;;;7.50;99.90;;;8.65;100.00;99370.38;4995491;28;32435;-58
2021/05/07 06:43:39;;;;;;;13.17;11.57;;;7.60;99.90;;;8.64;100.00;99381.22;5010746;28;32296;-60
2021/05/07 06:58:02;;;;;;;14.63;12.83;;;7.50;99.90;;;8.46;100.00;99400.03;4975661;28;34147;-60
2021/05/07 07:05:24;;;;;;;17.83;14.07;;;7.40;99.90;;;8.29;100.00;99409.81;4996435;28;34204;-61
2021/05/07 07:12:02;;;;;;;30.63;12.00;;;7.20;99.90;;;8.04;100.00;99410.78;5008286;28;31969;-61
2021/05/07 07:15:32;;;;;;;16.53;11.67;;;7.00;99.90;;;8.14;100.00;99418.66;5016926;28;30328;-60
2021/05/07 07:18:45;;;;;;;13.13;11.10;;;6.90;99.90;;;7.97;100.00;99432.91;4998389;28;29361;-60
2021/05/07 07:22:02;;;;;;;10.40;9.10;;;6.90;99.90;;;7.83;100.00;99429.88;5018422;28;28702;-60
2021/05/07 07:36:25;;;;;;;5.27;4.63;;;6.40;99.90;;;7.39;100.00;99437.19;5018749;28;29783;-60
2021/05/07 07:39:38;;;;;;;165.03;17.43;;;6.30;99.90;;;7.73;100.00;99431.84;5018926;28;28153;-60
2021/05/07 07:53:35;;;;;;;3.53;3.23;;;6.70;99.90;;;8.28;100.00;99426.81;5020536;28;20528;-60
2021/05/07 07:57:18;;;;;;;6.07;5.47;;;6.80;99.90;;;8.86;100.00;99439.22;5020379;28;28418;-59
2021/05/07 08:08:36;;;;;;;36.30;7.57;;;7.70;99.90;;;9.09;100.00;99442.03;4987435;28;20256;-61
2021/05/07 08:16:32;;;;;;;5.37;4.97;;;7.90;99.90;;;9.06;100.00;99450.34;4917602;28;20344;-62
2021/05/07 08:19:44;;;;;;;4.90;4.40;;;8.00;99.90;;;9.09;100.00;99451.84;4882063;29;20234;-62
2021/05/07 08:23:02;;;;;;;4.93;4.53;;;8.00;99.90;;;8.64;100.00;99454.06;4924713;28;28129;-64
2021/05/07 08:30:44;;;;;;;5.00;4.57;;;8.00;99.90;;;8.74;100.00;99477.06;4921454;28;27080;-60
2021/05/07 08:34:07;;;;;;;6.17;5.60;;;8.00;99.90;;;8.77;100.00;99476.72;5020574;28;30376;-62
2021/05/07 08:48:53;;;;;;;6.73;6.00;;;8.10;99.90;;;9.44;100.00;99478.16;4940649;28;30272;-63
2021/05/07 08:52:04;;;;;;;6.47;5.87;;;8.30;99.90;;;9.61;100.00;99487.81;4989853;28;27537;-63
2021/05/07 08:55:21;;;;;;;4.97;4.47;;;8.40;99.90;;;9.73;100.00;99491.78;5025116;28;27641;-62
2021/05/07 09:02:49;;;;;;;5.20;4.70;;;9.00;99.90;;;10.93;100.00;99485.09;5028656;28;20641;-61
2021/05/07 09:06:12;;;;;;;3.90;3.60;;;9.40;99.90;;;10.02;100.00;99488.47;5007911;28;20225;-61
2021/05/07 09:09:34;;;;;;;3.17;2.87;;;9.80;99.90;;;9.72;100.00;99506.13;5016875;28;20992;-61
2021/05/07 09:13:04;;;;;;;2.53;2.33;;;9.70;99.90;;;10.46;100.00;99498.66;5007121;28;20268;-60
2021/05/07 09:20:11;;;;;;;5.40;4.90;;;9.70;99.90;;;9.58;100.00;99509.50;5013107;28;20226;-60
2021/05/07 09:23:29;;;;;;;4.60;4.20;;;9.80;99.90;;;9.58;100.00;99530.03;5025328;28;23252;-60
2021/05/07 09:26:40;;;;;;;5.73;5.23;;;9.60;99.90;;;9.63;100.00;99541.06;5024041;28;20304;-61
2021/05/07 09:30:03;;;;;;;5.37;4.67;;;9.50;99.90;;;10.00;100.00;99529.75;5028674;28;20237;-61
2021/05/07 09:33:36;;;;;;;5.20;4.70;;;9.60;99.90;;;9.62;100.00;99552.75;5025212;28;20222;-61
2021/05/07 09:36:54;;;;;;;7.00;5.77;;;9.90;99.90;;;8.94;100.00;99551.25;5022421;28;20458;-59
2021/05/07 09:40:06;;;;;;;5.93;5.20;;;9.80;99.90;;;8.87;100.00;99570.78;5027598;28;23994;-61
2021/05/07 09:43:32;;;;;;;5.30;4.80;;;9.50;99.90;;;8.67;100.00;99596.88;5027723;28;21788;-59
2021/05/07 09:46:49;;;;;;;4.70;4.30;;;9.30;99.90;;;8.36;100.00;99595.78;5018092;28;20623;-61
2021/05/07 09:50:40;;;;;;;5.47;4.97;;;9.00;99.90;;;8.41;100.00;99615.63;5003895;28;29082;-61
2021/05/07 09:54:24;;;;;;;5.33;4.83;;;8.70;99.90;;;8.82;100.00;99616.59;4952927;28;25764;-58
2021/05/07 09:57:37;;;;;;;5.37;4.73;;;8.60;99.90;;;8.92;100.00;99619.13;4969675;28;22158;-60
2021/05/07 10:00:49;;;;;;;3.50;3.20;;;8.70;99.90;;;8.86;100.00;99617.13;5028081;28;20221;-61
2021/05/07 10:04:01;;;;;;;3.87;3.20;;;8.70;99.90;;;8.56;100.00;99624.69;5023459;28;20645;-60
2021/05/07 10:07:13;;;;;;;3.07;2.70;;;8.70;99.90;;;8.36;100.00;99641.09;5019032;28;24827;-60
2021/05/07 10:10:51;;;;;;;2.97;2.60;;;8.50;99.90;;;8.40;100.00;99650.47;5021481;28;23134;-59
2021/05/07 10:14:03;;;;;;;2.30;2.10;;;8.30;99.90;;;8.51;100.00;99656.34;5015851;28;27580;-61
2021/05/07 10:17:20;;;;;;;2.10;1.87;;;8.20;99.90;;;8.42;100.00;99656.44;5018509;28;22023;-61
2021/05/07 10:20:50;;;;;;;1.60;1.50;;;8.10;99.90;;;8.28;100.00;99673.88;5022962;28;20591;-56
2021/05/07 10:28:02;;;;;;;1.40;1.30;;;7.90;99.90;;;8.37;100.00;99696.94;4992319;28;22664;-61
2021/05/07 10:31:27;;;;;;;1.37;1.27;;;7.80;99.90;;;8.51;100.00;99703.50;4996730;28;25810;-58
2021/05/07 10:34:39;;;;;;;1.20;1.00;;;7.80;99.90;;;9.04;100.00;99695.19;5003221;28;24335;-58
2021/05/07 10:37:56;;;;;;;1.83;1.50;;;7.90;99.90;;;9.17;100.00;99708.91;5001832;28;22335;-58
2021/05/07 10:41:16;;;;;;;1.37;1.10;;;8.20;99.90;;;9.26;100.00;99707.13;5000412;28;22004;-56
2021/05/07 10:48:10;;;;;;;1.30;1.20;;;8.60;99.90;;;8.91;100.00;99735.69;4988597;28;22364;-57
2021/05/07 10:51:39;;;;;;;1.87;1.63;;;8.60;99.90;;;9.13;100.00;99742.28;4994970;28;22809;-58
2021/05/07 10:58:54;;;;;;;3.10;2.80;;;8.80;99.90;;;9.30;100.00;99746.66;4996605;28;22613;-59
2021/05/07 11:05:52;;;;;;;2.20;2.00;;;9.00;99.90;;;9.32;100.00;99767.84;4997366;28;20339;-56
2021/05/07 11:09:21;;;;;;;2.17;2.00;;;9.00;99.90;;;9.45;100.00;99767.38;4996495;28;20671;-58
2021/05/07 11:12:32;;;;;;;2.27;2.10;;;9.20;99.90;;;9.41;100.00;99755.34;5001305;28;20218;-57
2021/05/07 11:15:45;;;;;;;2.17;1.97;;;9.30;99.90;;;9.72;100.00;99770.63;5002758;28;22629;-59
2021/05/07 11:19:03;;;;;;;2.83;1.93;;;9.50;99.90;;;9.85;100.00;99779.97;5003926;28;20735;-57
2021/05/07 11:22:17;;;;;;;2.03;1.60;;;9.70;99.90;;;9.54;100.00;99777.91;5016053;28;21274;-59
2021/05/07 11:25:30;;;;;;;1.93;1.70;;;9.80;99.90;;;9.43;100.00;99798.75;5006673;28;20662;-59
2021/05/07 11:29:00;;;;;;;4.27;1.73;;;9.80;99.90;;;9.17;100.00;99809.50;5024525;28;20655;-57
2021/05/07 11:32:17;;;;;;;1.70;1.60;;;9.70;99.90;;;9.35;100.00;99815.59;5022632;28;20886;-56
2021/05/07 11:35:39;;;;;;;1.93;1.80;;;9.60;99.90;;;9.15;100.00;99812.31;5020057;28;21672;-58
2021/05/07 11:38:55;;;;;;;2.10;1.90;;;9.50;99.90;;;9.12;100.00;99825.19;5019954;28;20552;-59
2021/05/07 11:42:10;;;;;;;1.97;1.87;;;9.40;99.90;;;9.22;100.00;99834.72;5021975;28;23266;-58
2021/05/07 11:45:36;;;;;;;2.40;1.97;;;9.30;99.90;;;9.00;100.00;99828.13;5005915;28;24592;-58
2021/05/07 11:48:54;;;;;;;2.63;2.20;;;9.30;99.90;;;8.90;100.00;99827.38;5000328;28;22696;-58
2021/05/07 11:52:20;;;;;;;2.67;2.47;;;9.30;99.90;;;8.94;100.00;99841.25;4930545;28;20229;-58
2021/05/07 11:55:42;;;;;;;2.83;2.57;;;9.10;99.90;;;8.97;100.00;99846.28;5010843;28;20468;-59
2021/05/07 11:59:09;;;;;;;3.07;2.77;;;9.00;99.90;;;9.09;100.00;99842.34;5016717;28;23203;-59
2021/05/07 12:02:27;;;;;;;1.90;1.80;;;9.00;99.90;;;9.34;100.00;99854.81;5011994;28;25130;-58
2021/05/07 12:05:45;;;;;;;2.40;2.10;;;9.00;99.90;;;9.73;100.00;99859.63;5022840;28;20590;-58
2021/05/07 12:09:01;;;;;;;2.63;2.20;;;9.20;99.90;;;9.74;100.00;99858.63;5022476;28;20224;-58
2021/05/07 12:12:22;;;;;;;2.77;2.57;;;9.50;99.90;;;9.43;100.00;99855.66;5011429;28;20226;-59
2021/05/07 12:16:00;;;;;;;2.67;2.47;;;9.70;99.90;;;9.90;100.00;99855.13;5008469;28;24473;-58
2021/05/07 12:19:17;;;;;;;2.87;2.67;;;9.90;99.90;;;10.39;100.00;99861.38;5010108;28;20607;-58
2021/05/07 12:22:43;;;;;;;3.60;2.93;;;10.40;99.90;;;10.89;100.00;99852.28;5018052;28;21317;-58
2021/05/07 12:36:24;;;;;;;4.80;4.30;;;11.70;91.90;;;10.89;100.00;99865.69;5023427;28;20876;-59
2021/05/07 12:39:36;;;;;;;3.93;3.53;;;12.00;89.40;;;11.94;100.00;99872.50;5023673;28;20224;-58
2021/05/07 12:42:53;;;;;;;4.07;3.67;;;12.50;91.10;;;12.18;100.00;99861.63;5023105;28;21647;-56
2021/05/07 12:49:36;;;;;;;4.47;4.00;;;13.30;81.60;;;11.10;100.00;99871.34;4997697;28;20336;-59
2021/05/07 12:52:53;;;;;;;4.60;4.20;;;13.30;76.90;;;11.46;100.00;99866.38;5022642;28;20228;-59
2021/05/07 12:56:04;;;;;;;4.60;4.20;;;13.30;77.40;;;11.99;100.00;99860.22;5022892;28;20283;-58
2021/05/07 12:59:16;;;;;;;4.77;4.37;;;13.40;76.60;;;11.74;100.00;99872.94;5023122;28;20722;-58
2021/05/07 13:02:27;;;;;;;4.43;4.03;;;13.60;74.30;;;12.05;100.00;99878.31;5018549;28;20985;-58
2021/05/07 13:05:39;;;;;;;4.93;4.43;;;13.80;75.80;;;12.25;100.00;99870.59;5014344;28;20225;-59
2021/05/07 13:08:50;;;;;;;5.50;4.97;;;14.20;73.90;;;12.06;100.00;99879.13;5022673;28;20274;-58
2021/05/07 13:12:01;;;;;;;5.20;4.80;;;14.40;70.50;;;12.75;100.00;99878.06;5020074;28;20250;-58
2021/05/07 13:19:14;;;;;;;5.20;4.77;;;14.60;68.30;;;11.51;100.00;99875.53;4939814;28;20607;-57
2021/05/07 13:22:26;;;;;;;5.10;4.63;;;14.60;64.90;;;11.45;100.00;99876.25;4942436;28;20259;-59
2021/05/07 13:25:38;;;;;;;6.97;4.93;;;14.10;66.10;;;11.46;100.00;99880.59;5004640;28;20561;-59
2021/05/07 13:29:09;;;;;;;5.20;4.70;;;13.70;67.60;;;12.21;100.00;99885.41;5003789;28;20233;-59
2021/05/07 13:36:22;;;;;;;4.83;4.43;;;13.90;70.90;;;13.12;100.00;99889.78;4978274;28;20219;-59
2021/05/07 13:39:34;;;;;;;5.00;4.60;;;14.30;71.20;;;12.98;100.00;99893.31;5000070;28;21242;-58
2021/05/07 13:45:57;;;;;;;6.17;5.50;;;14.60;67.00;;;11.62;100.00;99906.47;5004014;28;20991;-59
2021/05/07 13:49:09;;;;;;;6.20;5.57;;;14.40;66.90;;;11.34;100.00;99916.81;5001889;28;20210;-57
2021/05/07 13:52:32;;;;;;;5.50;5.00;;;14.00;66.90;;;10.94;100.00;99963.22;5000250;28;20931;-59
2021/05/07 13:55:59;;;;;;;4.83;4.43;;;13.30;72.30;;;8.97;100.00;99990.38;4991118;28;34305;-60
2021/05/07 13:59:10;;;;;;;3.60;3.30;;;12.40;84.80;;;7.94;100.00;99993.50;4990227;28;38057;-61
2021/05/07 14:02:33;;;;;;;8.47;3.77;;;11.00;92.00;;;7.15;100.00;99974.47;4989980;28;42136;-60
2021/05/07 14:05:46;;;;;;;4.63;4.13;;;9.80;98.10;;;7.08;100.00;99950.25;4985571;28;38134;-60
2021/05/07 14:12:26;;;;;;;5.50;5.00;;;8.20;99.90;;;8.11;100.00;99963.38;4992070;28;31630;-59
2021/05/07 14:16:06;;;;;;;7.00;5.60;;;8.00;99.90;;;8.33;100.00;99962.13;4991864;28;30575;-57
2021/05/07 14:23:08;;;;;;;5.17;4.77;;;8.20;99.90;;;9.35;100.00;99965.13;4989815;28;44220;-60
2021/05/07 14:26:31;;;;;;;5.67;5.17;;;8.70;99.90;;;9.86;100.00;99966.03;4991930;28;28533;-60
2021/05/07 14:29:42;;;;;;;5.20;4.70;;;9.30;99.90;;;10.20;100.00;99977.53;5000475;28;31149;-59
2021/05/07 14:32:53;;;;;;;8.20;4.63;;;9.80;99.90;;;10.64;100.00;99970.06;4998429;28;27496;-59
2021/05/07 14:36:29;;;;;;;5.83;4.30;;;10.40;99.90;;;11.15;100.00;99958.16;4997378;28;25370;-60
2021/05/07 14:39:42;;;;;;;4.90;4.00;;;10.80;99.90;;;11.17;100.00;99958.00;4955143;28;24353;-60
2021/05/07 14:42:55;;;;;;;5.43;4.80;;;11.20;99.90;;;11.45;100.00;99959.28;4958077;28;28539;-60
2021/05/07 14:46:31;;;;;;;6.47;4.67;;;11.50;99.90;;;11.02;100.00;99973.06;5002890;28;20257;-58
2021/05/07 14:50:08;;;;;;;4.63;4.23;;;11.60;99.90;;;10.63;100.00;99984.44;5001070;28;24067;-58
2021/05/07 15:00:39;;;;;;;5.63;5.10;;;11.00;99.90;;;10.12;100.00;100008.72;4932642;28;35924;-59
2021/05/07 15:03:51;;;;;;;6.67;6.07;;;10.80;99.90;;;9.58;100.00;100045.53;4993875;28;30233;-60
2021/05/07 15:07:17;;;;;;;6.77;6.20;;;10.50;99.90;;;7.88;100.00;100074.84;4993159;28;39436;-59
2021/05/07 15:10:34;;;;;;;6.90;6.20;;;9.80;99.90;;;7.28;100.00;100075.28;4980321;28;33281;-60
2021/05/07 15:13:46;;;;;;;8.07;7.30;;;8.80;99.90;;;7.28;100.00;100083.28;4991795;28;34825;-59
2021/05/07 15:17:09;;;;;;;7.87;7.07;;;8.00;99.90;;;7.37;100.00;100075.28;4988482;28;37901;-58
2021/05/07 15:20:26;;;;;;;8.27;7.47;;;7.50;99.90;;;7.58;100.00;100057.28;4988925;28;35678;-58
2021/05/07 15:23:44;;;;;;;9.73;8.83;;;7.20;99.90;;;8.40;100.00;100059.22;4987723;28;37993;-58
2021/05/07 15:26:55;;;;;;;13.40;10.97;;;7.20;99.90;;;8.70;100.00;100062.50;4990856;28;30273;-59
2021/05/07 15:30:23;;;;;;;8.07;7.37;;;7.40;99.90;;;8.49;100.00;100058.28;4994918;28;32892;-58
2021/05/07 15:33:45;;;;;;;8.50;7.70;;;7.60;99.90;;;8.83;100.00;100058.47;4984683;28;42116;-57
2021/05/07 15:37:08;;;;;;;7.87;7.07;;;7.80;99.90;;;9.08;100.00;100059.53;4989802;28;32499;-58
2021/05/07 15:40:20;;;;;;;8.60;7.73;;;7.90;99.90;;;9.08;100.00;100067.53;4996672;28;32549;-58
2021/05/07 15:47:19;;;;;;;8.20;7.40;;;8.10;99.90;;;9.04;100.00;100073.31;4993013;28;33785;-59
2021/05/07 15:50:31;;;;;;;8.60;7.57;;;8.10;99.90;;;9.25;100.00;100079.19;4780975;28;27756;-60
2021/05/07 15:53:42;;;;;;;8.27;7.47;;;8.20;99.90;;;9.84;100.00;100074.91;4933311;28;22642;-60
2021/05/07 15:56:53;;;;;;;8.47;7.37;;;8.20;99.90;;;10.06;100.00;100079.69;4995731;28;25696;-60
2021/05/07 16:00:05;;;;;;;8.00;7.27;;;8.40;99.90;;;10.34;100.00;100080.34;4998754;28;27646;-61
2021/05/07 16:03:29;;;;;;;7.90;7.20;;;8.60;99.90;;;10.50;100.00;100080.44;4962113;28;27201;-61
2021/05/07 16:06:40;;;;;;;7.17;6.50;;;8.70;99.90;;;10.52;100.00;100085.59;4991383;28;25026;-61
2021/05/07 16:09:51;;;;;;;7.47;6.53;;;8.80;99.90;;;10.37;100.00;100078.22;4997552;28;30301;-61
2021/05/07 16:13:09;;;;;;;7.03;6.33;;;8.80;99.90;;;10.72;100.00;100085.16;4998317;28;24389;-61
2021/05/07 16:16:32;;;;;;;6.67;6.07;;;8.90;99.90;;;10.36;100.00;100091.75;4996687;28;27020;-61
2021/05/07 16:19:44;;;;;;;6.57;5.97;;;9.00;99.90;;;10.24;100.00;100093.88;4997512;28;23316;-59
2021/05/07 16:22:55;;;;;;;6.93;6.33;;;9.00;99.90;;;10.31;100.00;100102.91;4996528;28;31886;-60
2021/05/07 16:26:07;;;;;;;6.23;5.60;;;9.00;99.90;;;10.31;100.00;100094.88;4988977;28;25397;-59
2021/05/07 16:29:32;;;;;;;6.37;5.37;;;9.00;99.90;;;10.37;100.00;100088.91;4999025;28;21238;-59
2021/05/07 16:32:44;;;;;;;6.47;5.97;;;9.00;99.90;;;10.21;100.00;100096.84;5014518;28;25228;-57
2021/05/07 16:35:56;;;;;;;5.67;5.17;;;9.00;99.90;;;10.10;100.00;100105.13;4999983;28;22293;-59
2021/05/07 16:39:22;;;;;;;5.87;4.80;;;8.90;99.90;;;10.02;100.00;100105.06;4989625;28;24925;-58
2021/05/07 16:46:42;;;;;;;4.70;4.30;;;8.80;99.90;;;9.83;100.00;100119.50;4932469;28;25019;-57
2021/05/07 16:49:53;;;;;;;4.00;3.60;;;8.70;99.90;;;9.90;100.00;100133.91;4999695;28;26341;-59
2021/05/07 16:53:05;;;;;;;3.40;3.10;;;8.70;99.90;;;9.89;100.00;100152.78;5009217;28;25026;-58
2021/05/07 16:56:35;;;;;;;4.67;2.90;;;8.60;99.90;;;9.75;100.00;100167.56;5016040;28;26614;-58
2021/05/07 17:00:11;;;;;;;3.57;3.27;;;8.60;99.90;;;9.52;100.00;100175.19;5005817;28;22974;-57
2021/05/07 17:06:54;;;;;;;2.83;2.53;;;8.50;99.90;;;10.17;100.00;100177.50;5006584;28;25652;-59
2021/05/07 17:25:39;;;;;;;1.40;1.30;;;8.80;99.90;;;10.07;100.00;100196.34;4907782;28;26155;-56
2021/05/07 17:28:57;;;;;;;1.77;1.67;;;8.70;99.90;;;10.02;100.00;100202.13;5007781;28;31129;-55
2021/05/07 17:32:09;;;;;;;1.50;1.40;;;8.60;99.90;;;9.86;100.00;100214.56;5014055;28;28578;-57
2021/05/07 17:35:21;;;;;;;1.60;1.50;;;8.60;99.90;;;9.61;100.00;100221.53;5012784;28;28528;-56
2021/05/07 17:38:47;;;;;;;1.53;1.43;;;8.40;99.90;;;9.50;100.00;100227.13;5012110;28;27453;-57
2021/05/07 17:42:04;;;;;;;1.93;1.73;;;8.30;99.90;;;9.64;100.00;100231.91;5021174;28;25141;-57
2021/05/07 17:45:33;;;;;;;2.40;1.57;;;8.20;99.90;;;9.65;100.00;100231.75;5001631;28;29909;-57
2021/05/07 17:48:46;;;;;;;2.13;1.93;;;8.10;99.90;;;9.68;100.00;100234.13;5011044;28;26446;-58
2021/05/07 17:51:57;;;;;;;1.60;1.50;;;8.00;99.90;;;9.76;100.00;100236.03;5006538;28;23403;-58
2021/05/07 17:55:08;;;;;;;2.20;2.00;;;7.90;99.90;;;9.69;100.00;100238.47;5003740;28;28229;-57
2021/05/07 17:58:19;;;;;;;3.00;2.17;;;7.90;99.90;;;9.54;100.00;100247.16;5010114;28;27562;-57
2021/05/07 18:04:58;;;;;;;3.43;2.17;;;7.80;99.90;;;9.43;100.00;100255.41;4992608;28;31986;-56
2021/05/07 18:11:54;;;;;;;2.30;2.00;;;7.60;99.90;;;9.04;100.00;100274.31;4914851;28;39855;-55
2021/05/07 18:15:05;;;;;;;2.40;2.17;;;7.50;99.90;;;8.80;100.00;100282.03;5002709;28;33756;-57
2021/05/07 18:18:16;;;;;;;3.20;2.40;;;7.50;99.90;;;8.69;100.00;100296.41;5007560;28;31489;-58
2021/05/07 18:21:31;;;;;;;2.43;2.20;;;7.30;99.90;;;8.55;100.00;100305.69;4988885;28;31235;-57
2021/05/07 18:24:42;;;;;;;2.20;2.00;;;7.20;99.90;;;8.43;100.00;100303.34;5005342;28;33629;-58
2021/05/07 18:27:54;;;;;;;2.90;2.60;;;7.20;99.90;;;8.37;100.00;100309.28;5000184;28;36273;-56
2021/05/07 18:31:28;;;;;;;2.77;2.50;;;7.00;99.90;;;8.32;100.00;100307.03;4997140;28;32927;-57
2021/05/07 18:34:39;;;;;;;3.63;2.43;;;7.00;99.90;;;8.16;100.00;100320.88;5010823;28;38904;-58
2021/05/07 18:38:04;;;;;;;3.23;2.57;;;6.90;99.90;;;8.04;100.00;100326.50;5013299;28;32336;-57
2021/05/07 18:41:16;;;;;;;4.07;2.77;;;6.80;99.90;;;7.98;100.00;100330.59;4982656;28;36191;-57
2021/05/07 18:44:39;;;;;;;3.20;2.90;;;6.80;99.90;;;7.88;100.00;100327.94;5005831;28;33226;-58
2021/05/07 18:47:50;;;;;;;4.00;3.60;;;6.80;99.90;;;7.79;100.00;100342.06;4993668;28;35771;-57
2021/05/07 18:51:01;;;;;;;4.50;4.10;;;6.70;99.90;;;7.66;100.00;100352.19;5006697;28;36722;-58
2021/05/07 18:54:17;;;;;;;7.00;5.10;;;6.60;99.90;;;7.63;100.00;100356.94;4992946;28;36246;-58
2021/05/07 18:57:29;;;;;;;7.33;6.23;;;6.50;99.90;;;7.32;100.00;100361.47;5003906;28;35021;-56
2021/05/07 19:00:41;;;;;;;7.10;6.10;;;6.40;99.90;;;7.18;100.00;100370.66;4985227;28;31394;-58
2021/05/07 19:03:52;;;;;;;5.20;4.40;;;6.20;99.90;;;7.04;100.00;100368.38;4986424;28;37732;-57
2021/05/07 19:07:03;;;;;;;5.37;4.80;;;6.10;99.90;;;6.94;100.00;100376.28;4992813;28;33913;-58
2021/05/07 19:14:23;;;;;;;4.87;4.43;;;5.90;99.90;;;6.71;100.00;100382.75;4996128;28;34507;-57
2021/05/07 19:21:25;;;;;;;4.60;4.20;;;5.60;99.90;;;6.56;100.00;100395.53;4981892;28;42204;-58